Terminal Aerodrome Forecast
Issued by NWS

Home | Current Version | Previous Version | Text Only | Print | Product List | Glossary Off
Versions: 1 2 3 4 5 6 7 8 9 10 11 12

547
FTUS42 KMHX 190535
TAFOAJ
TAF
KOAJ 190535Z 1906/2006 02002KT P6SM SCT050
      TEMPO 1909/1912 3SM BR
     FM191200 02005KT P6SM SKC
      AMD LTD TO CLD VIS AND WIND=

USA.gov is the U.S. government's official web portal to all federal, state and local government web resources and services.